sensor_id;sensor_type;location;lat;lon;timestamp;P1;durP1;ratioP1;P2;durP2;ratioP2
35324;SDS011;35135;47.510;19.036;2022-11-15T00:01:49;12.00;;;10.88;;
35324;SDS011;35135;47.510;19.036;2022-11-15T00:04:15;10.90;;;9.82;;
35324;SDS011;35135;47.510;19.036;2022-11-15T00:06:41;14.60;;;11.05;;
35324;SDS011;35135;47.510;19.036;2022-11-15T00:09:07;12.05;;;10.85;;
35324;SDS011;35135;47.510;19.036;2022-11-15T00:11:32;12.00;;;10.63;;
35324;SDS011;35135;47.510;19.036;2022-11-15T00:13:58;11.73;;;10.50;;
35324;SDS011;35135;47.510;19.036;2022-11-15T00:16:24;12.13;;;10.95;;
35324;SDS011;35135;47.510;19.036;2022-11-15T00:18:50;11.43;;;10.32;;
35324;SDS011;35135;47.510;19.036;2022-11-15T00:21:16;12.05;;;10.50;;
35324;SDS011;35135;47.510;19.036;2022-11-15T00:23:42;12.30;;;10.60;;
35324;SDS011;35135;47.510;19.036;2022-11-15T00:26:10;12.43;;;11.13;;
35324;SDS011;35135;47.510;19.036;2022-11-15T00:28:37;12.13;;;10.93;;
35324;SDS011;35135;47.510;19.036;2022-11-15T00:31:04;12.18;;;10.88;;
35324;SDS011;35135;47.510;19.036;2022-11-15T00:33:31;11.82;;;10.70;;
35324;SDS011;35135;47.510;19.036;2022-11-15T00:36:01;12.13;;;10.93;;
35324;SDS011;35135;47.510;19.036;2022-11-15T00:38:35;11.30;;;10.13;;
35324;SDS011;35135;47.510;19.036;2022-11-15T00:41:03;11.23;;;10.13;;
35324;SDS011;35135;47.510;19.036;2022-11-15T00:43:30;11.18;;;10.05;;
35324;SDS011;35135;47.510;19.036;2022-11-15T00:45:55;11.18;;;10.02;;
35324;SDS011;35135;47.510;19.036;2022-11-15T00:48:21;11.02;;;9.73;;
35324;SDS011;35135;47.510;19.036;2022-11-15T00:50:48;11.68;;;10.20;;
35324;SDS011;35135;47.510;19.036;2022-11-15T00:53:13;10.75;;;9.68;;
35324;SDS011;35135;47.510;19.036;2022-11-15T00:55:39;10.57;;;9.57;;
35324;SDS011;35135;47.510;19.036;2022-11-15T00:58:05;10.70;;;9.32;;
35324;SDS011;35135;47.510;19.036;2022-11-15T01:00:30;11.15;;;10.05;;
35324;SDS011;35135;47.510;19.036;2022-11-15T01:02:56;11.50;;;10.05;;
35324;SDS011;35135;47.510;19.036;2022-11-15T01:05:21;10.63;;;9.63;;
35324;SDS011;35135;47.510;19.036;2022-11-15T01:07:50;10.95;;;9.85;;
35324;SDS011;35135;47.510;19.036;2022-11-15T01:10:20;11.85;;;9.32;;
35324;SDS011;35135;47.510;19.036;2022-11-15T01:12:46;10.80;;;9.70;;
35324;SDS011;35135;47.510;19.036;2022-11-15T01:15:12;10.82;;;9.73;;
35324;SDS011;35135;47.510;19.036;2022-11-15T01:17:38;10.13;;;9.13;;
35324;SDS011;35135;47.510;19.036;2022-11-15T01:20:04;10.50;;;9.50;;
35324;SDS011;35135;47.510;19.036;2022-11-15T01:22:30;10.07;;;9.10;;
35324;SDS011;35135;47.510;19.036;2022-11-15T01:24:55;10.23;;;9.23;;
35324;SDS011;35135;47.510;19.036;2022-11-15T01:27:21;10.18;;;9.18;;
35324;SDS011;35135;47.510;19.036;2022-11-15T01:29:47;10.00;;;9.02;;
35324;SDS011;35135;47.510;19.036;2022-11-15T01:32:12;10.18;;;9.18;;
35324;SDS011;35135;47.510;19.036;2022-11-15T01:34:38;9.30;;;8.40;;
35324;SDS011;35135;47.510;19.036;2022-11-15T01:37:04;9.32;;;8.40;;
35324;SDS011;35135;47.510;19.036;2022-11-15T01:39:29;10.55;;;9.55;;
35324;SDS011;35135;47.510;19.036;2022-11-15T01:41:55;9.50;;;8.70;;
35324;SDS011;35135;47.510;19.036;2022-11-15T01:44:34;9.88;;;8.88;;
35324;SDS011;35135;47.510;19.036;2022-11-15T01:47:14;9.55;;;8.57;;
35324;SDS011;35135;47.510;19.036;2022-11-15T01:49:47;10.27;;;9.18;;
35324;SDS011;35135;47.510;19.036;2022-11-15T01:52:34;9.55;;;8.65;;
35324;SDS011;35135;47.510;19.036;2022-11-15T01:55:02;9.55;;;8.50;;
35324;SDS011;35135;47.510;19.036;2022-11-15T01:57:34;8.93;;;8.02;;
35324;SDS011;35135;47.510;19.036;2022-11-15T02:00:01;10.48;;;9.05;;
35324;SDS011;35135;47.510;19.036;2022-11-15T02:02:28;9.05;;;8.20;;
35324;SDS011;35135;47.510;19.036;2022-11-15T02:04:54;9.48;;;8.68;;
35324;SDS011;35135;47.510;19.036;2022-11-15T02:07:20;9.88;;;8.88;;
35324;SDS011;35135;47.510;19.036;2022-11-15T02:09:47;9.40;;;8.43;;
35324;SDS011;35135;47.510;19.036;2022-11-15T02:12:14;9.15;;;8.35;;
35324;SDS011;35135;47.510;19.036;2022-11-15T02:14:44;8.88;;;7.97;;
35324;SDS011;35135;47.510;19.036;2022-11-15T02:17:25;8.75;;;7.95;;
35324;SDS011;35135;47.510;19.036;2022-11-15T02:25:48;8.40;;;7.65;;
35324;SDS011;35135;47.510;19.036;2022-11-15T02:36:43;8.40;;;7.53;;
35324;SDS011;35135;47.510;19.036;2022-11-15T02:42:05;9.38;;;8.38;;
35324;SDS011;35135;47.510;19.036;2022-11-15T02:44:55;8.60;;;7.70;;
35324;SDS011;35135;47.510;19.036;2022-11-15T02:47:23;8.70;;;7.88;;
35324;SDS011;35135;47.510;19.036;2022-11-15T02:49:53;9.18;;;8.30;;
35324;SDS011;35135;47.510;19.036;2022-11-15T02:52:22;8.85;;;8.05;;
35324;SDS011;35135;47.510;19.036;2022-11-15T02:57:20;8.18;;;7.38;;
35324;SDS011;35135;47.510;19.036;2022-11-15T03:05:17;8.23;;;7.43;;
35324;SDS011;35135;47.510;19.036;2022-11-15T03:08:10;8.07;;;7.38;;
35324;SDS011;35135;47.510;19.036;2022-11-15T03:10:42;8.57;;;7.78;;
35324;SDS011;35135;47.510;19.036;2022-11-15T03:13:21;7.88;;;7.07;;
35324;SDS011;35135;47.510;19.036;2022-11-15T03:16:02;8.50;;;7.70;;
35324;SDS011;35135;47.510;19.036;2022-11-15T03:18:32;8.18;;;7.47;;
35324;SDS011;35135;47.510;19.036;2022-11-15T03:21:01;8.02;;;7.25;;
35324;SDS011;35135;47.510;19.036;2022-11-15T03:23:30;7.75;;;7.05;;
35324;SDS011;35135;47.510;19.036;2022-11-15T03:25:58;8.25;;;7.47;;
35324;SDS011;35135;47.510;19.036;2022-11-15T03:28:36;8.25;;;7.45;;
35324;SDS011;35135;47.510;19.036;2022-11-15T03:31:11;7.90;;;7.20;;
35324;SDS011;35135;47.510;19.036;2022-11-15T03:33:57;8.30;;;7.60;;
35324;SDS011;35135;47.510;19.036;2022-11-15T03:36:27;7.90;;;7.18;;
35324;SDS011;35135;47.510;19.036;2022-11-15T03:38:56;8.25;;;7.43;;
35324;SDS011;35135;47.510;19.036;2022-11-15T03:41:37;7.95;;;7.22;;
35324;SDS011;35135;47.510;19.036;2022-11-15T03:47:01;7.88;;;7.10;;
35324;SDS011;35135;47.510;19.036;2022-11-15T03:49:33;8.10;;;7.40;;
35324;SDS011;35135;47.510;19.036;2022-11-15T03:52:00;7.70;;;7.00;;
35324;SDS011;35135;47.510;19.036;2022-11-15T03:54:28;8.10;;;7.38;;
35324;SDS011;35135;47.510;19.036;2022-11-15T03:56:54;7.90;;;7.20;;
35324;SDS011;35135;47.510;19.036;2022-11-15T03:59:20;8.00;;;7.25;;
35324;SDS011;35135;47.510;19.036;2022-11-15T04:01:46;8.00;;;7.30;;
35324;SDS011;35135;47.510;19.036;2022-11-15T04:04:11;7.80;;;7.10;;
35324;SDS011;35135;47.510;19.036;2022-11-15T04:06:37;7.75;;;6.95;;
35324;SDS011;35135;47.510;19.036;2022-11-15T04:09:03;7.10;;;6.40;;
35324;SDS011;35135;47.510;19.036;2022-11-15T04:11:28;9.52;;;7.32;;
35324;SDS011;35135;47.510;19.036;2022-11-15T04:13:54;7.30;;;6.65;;
35324;SDS011;35135;47.510;19.036;2022-11-15T04:16:20;7.72;;;6.95;;
35324;SDS011;35135;47.510;19.036;2022-11-15T04:18:45;8.02;;;6.88;;
35324;SDS011;35135;47.510;19.036;2022-11-15T04:21:31;7.43;;;6.72;;
35324;SDS011;35135;47.510;19.036;2022-11-15T04:24:15;7.55;;;6.85;;
35324;SDS011;35135;47.510;19.036;2022-11-15T04:26:41;6.93;;;6.32;;
35324;SDS011;35135;47.510;19.036;2022-11-15T04:29:06;7.10;;;6.40;;
35324;SDS011;35135;47.510;19.036;2022-11-15T04:31:50;6.90;;;6.30;;
35324;SDS011;35135;47.510;19.036;2022-11-15T04:34:16;7.38;;;6.68;;
35324;SDS011;35135;47.510;19.036;2022-11-15T04:36:41;7.05;;;6.45;;
35324;SDS011;35135;47.510;19.036;2022-11-15T04:39:25;7.50;;;6.75;;
35324;SDS011;35135;47.510;19.036;2022-11-15T04:41:51;7.65;;;6.88;;
35324;SDS011;35135;47.510;19.036;2022-11-15T04:44:16;7.20;;;6.50;;
35324;SDS011;35135;47.510;19.036;2022-11-15T04:46:42;7.32;;;6.65;;
35324;SDS011;35135;47.510;19.036;2022-11-15T04:49:08;7.20;;;6.57;;
35324;SDS011;35135;47.510;19.036;2022-11-15T04:51:33;7.22;;;6.57;;
35324;SDS011;35135;47.510;19.036;2022-11-15T04:53:59;6.88;;;6.28;;
35324;SDS011;35135;47.510;19.036;2022-11-15T04:56:24;7.35;;;6.65;;
35324;SDS011;35135;47.510;19.036;2022-11-15T04:58:50;6.90;;;6.30;;
35324;SDS011;35135;47.510;19.036;2022-11-15T05:01:15;7.70;;;7.00;;
35324;SDS011;35135;47.510;19.036;2022-11-15T05:03:42;7.40;;;6.70;;
35324;SDS011;35135;47.510;19.036;2022-11-15T05:06:27;7.30;;;6.65;;
35324;SDS011;35135;47.510;19.036;2022-11-15T05:08:53;7.00;;;6.40;;
35324;SDS011;35135;47.510;19.036;2022-11-15T05:11:19;7.75;;;6.97;;
35324;SDS011;35135;47.510;19.036;2022-11-15T05:13:45;7.20;;;6.50;;
35324;SDS011;35135;47.510;19.036;2022-11-15T05:16:11;7.60;;;6.90;;
35324;SDS011;35135;47.510;19.036;2022-11-15T05:18:36;6.30;;;5.70;;
35324;SDS011;35135;47.510;19.036;2022-11-15T05:21:06;7.13;;;6.13;;
35324;SDS011;35135;47.510;19.036;2022-11-15T05:23:33;6.90;;;6.20;;
35324;SDS011;35135;47.510;19.036;2022-11-15T05:25:59;7.80;;;6.78;;
35324;SDS011;35135;47.510;19.036;2022-11-15T05:28:25;7.32;;;6.63;;
35324;SDS011;35135;47.510;19.036;2022-11-15T05:30:51;8.55;;;7.28;;
35324;SDS011;35135;47.510;19.036;2022-11-15T05:33:17;7.88;;;6.90;;
35324;SDS011;35135;47.510;19.036;2022-11-15T05:35:45;7.63;;;6.55;;
35324;SDS011;35135;47.510;19.036;2022-11-15T05:38:15;7.10;;;6.38;;
35324;SDS011;35135;47.510;19.036;2022-11-15T05:40:41;6.70;;;6.10;;
35324;SDS011;35135;47.510;19.036;2022-11-15T05:43:06;7.25;;;6.55;;
35324;SDS011;35135;47.510;19.036;2022-11-15T05:45:34;7.80;;;6.97;;
35324;SDS011;35135;47.510;19.036;2022-11-15T05:48:01;7.13;;;6.43;;
35324;SDS011;35135;47.510;19.036;2022-11-15T05:50:31;6.90;;;6.22;;
35324;SDS011;35135;47.510;19.036;2022-11-15T05:52:57;6.95;;;6.35;;
35324;SDS011;35135;47.510;19.036;2022-11-15T05:55:23;7.22;;;6.53;;
35324;SDS011;35135;47.510;19.036;2022-11-15T05:57:48;6.75;;;6.15;;
35324;SDS011;35135;47.510;19.036;2022-11-15T06:00:14;6.53;;;5.93;;
35324;SDS011;35135;47.510;19.036;2022-11-15T06:02:40;6.50;;;5.90;;
35324;SDS011;35135;47.510;19.036;2022-11-15T06:05:05;7.18;;;6.57;;
35324;SDS011;35135;47.510;19.036;2022-11-15T06:07:31;7.05;;;6.35;;
35324;SDS011;35135;47.510;19.036;2022-11-15T06:09:57;6.40;;;5.70;;
35324;SDS011;35135;47.510;19.036;2022-11-15T06:12:22;7.00;;;6.30;;
35324;SDS011;35135;47.510;19.036;2022-11-15T06:14:48;8.52;;;6.97;;
35324;SDS011;35135;47.510;19.036;2022-11-15T06:17:13;7.28;;;6.57;;
35324;SDS011;35135;47.510;19.036;2022-11-15T06:19:39;7.57;;;6.75;;
35324;SDS011;35135;47.510;19.036;2022-11-15T06:22:05;7.97;;;6.43;;
35324;SDS011;35135;47.510;19.036;2022-11-15T06:24:30;9.60;;;6.82;;
35324;SDS011;35135;47.510;19.036;2022-11-15T06:26:56;7.97;;;7.00;;
35324;SDS011;35135;47.510;19.036;2022-11-15T06:29:22;7.40;;;6.70;;
35324;SDS011;35135;47.510;19.036;2022-11-15T06:31:48;6.75;;;6.10;;
35324;SDS011;35135;47.510;19.036;2022-11-15T06:34:14;8.05;;;7.20;;
35324;SDS011;35135;47.510;19.036;2022-11-15T06:36:39;7.85;;;7.05;;
35324;SDS011;35135;47.510;19.036;2022-11-15T06:39:05;10.25;;;7.63;;
35324;SDS011;35135;47.510;19.036;2022-11-15T06:41:33;10.00;;;7.72;;
35324;SDS011;35135;47.510;19.036;2022-11-15T06:43:59;10.05;;;7.78;;
35324;SDS011;35135;47.510;19.036;2022-11-15T06:46:25;9.50;;;7.68;;
35324;SDS011;35135;47.510;19.036;2022-11-15T06:48:51;9.10;;;7.15;;
35324;SDS011;35135;47.510;19.036;2022-11-15T06:51:17;10.55;;;7.60;;
35324;SDS011;35135;47.510;19.036;2022-11-15T06:53:43;9.15;;;7.00;;
35324;SDS011;35135;47.510;19.036;2022-11-15T06:56:08;11.35;;;7.80;;
35324;SDS011;35135;47.510;19.036;2022-11-15T06:58:35;9.27;;;7.55;;
35324;SDS011;35135;47.510;19.036;2022-11-15T07:01:05;8.30;;;7.18;;
35324;SDS011;35135;47.510;19.036;2022-11-15T07:03:36;8.50;;;7.47;;
35324;SDS011;35135;47.510;19.036;2022-11-15T07:06:06;9.07;;;7.28;;
35324;SDS011;35135;47.510;19.036;2022-11-15T07:08:32;10.88;;;7.28;;
35324;SDS011;35135;47.510;19.036;2022-11-15T07:10:59;8.45;;;7.53;;
35324;SDS011;35135;47.510;19.036;2022-11-15T07:13:27;8.35;;;7.55;;
35324;SDS011;35135;47.510;19.036;2022-11-15T07:15:54;11.98;;;7.97;;
35324;SDS011;35135;47.510;19.036;2022-11-15T07:18:20;12.40;;;7.60;;
35324;SDS011;35135;47.510;19.036;2022-11-15T07:20:45;14.63;;;8.52;;
35324;SDS011;35135;47.510;19.036;2022-11-15T07:23:11;13.68;;;7.85;;
35324;SDS011;35135;47.510;19.036;2022-11-15T07:25:37;12.75;;;8.15;;
35324;SDS011;35135;47.510;19.036;2022-11-15T07:28:02;11.82;;;7.65;;
35324;SDS011;35135;47.510;19.036;2022-11-15T07:30:28;8.90;;;7.15;;
35324;SDS011;35135;47.510;19.036;2022-11-15T07:32:55;15.80;;;8.80;;
35324;SDS011;35135;47.510;19.036;2022-11-15T07:35:22;11.00;;;7.65;;
35324;SDS011;35135;47.510;19.036;2022-11-15T07:37:55;11.00;;;7.95;;
35324;SDS011;35135;47.510;19.036;2022-11-15T07:40:21;12.57;;;8.48;;
35324;SDS011;35135;47.510;19.036;2022-11-15T07:42:47;10.50;;;7.70;;
35324;SDS011;35135;47.510;19.036;2022-11-15T07:45:22;14.55;;;7.95;;
35324;SDS011;35135;47.510;19.036;2022-11-15T07:47:50;10.98;;;7.97;;
35324;SDS011;35135;47.510;19.036;2022-11-15T07:50:16;10.68;;;8.15;;
35324;SDS011;35135;47.510;19.036;2022-11-15T07:52:42;13.35;;;8.45;;
35324;SDS011;35135;47.510;19.036;2022-11-15T07:55:08;11.23;;;8.60;;
35324;SDS011;35135;47.510;19.036;2022-11-15T07:57:34;13.48;;;8.90;;
35324;SDS011;35135;47.510;19.036;2022-11-15T08:00:00;11.02;;;8.68;;
35324;SDS011;35135;47.510;19.036;2022-11-15T08:02:26;12.15;;;8.27;;
35324;SDS011;35135;47.510;19.036;2022-11-15T08:04:52;11.07;;;8.02;;
35324;SDS011;35135;47.510;19.036;2022-11-15T08:07:17;12.85;;;8.70;;
35324;SDS011;35135;47.510;19.036;2022-11-15T08:09:43;10.73;;;8.57;;
35324;SDS011;35135;47.510;19.036;2022-11-15T08:12:09;12.65;;;9.27;;
35324;SDS011;35135;47.510;19.036;2022-11-15T08:14:34;15.35;;;8.43;;
35324;SDS011;35135;47.510;19.036;2022-11-15T08:17:00;12.00;;;8.48;;
35324;SDS011;35135;47.510;19.036;2022-11-15T08:19:26;11.20;;;8.18;;
35324;SDS011;35135;47.510;19.036;2022-11-15T08:21:52;11.25;;;8.13;;
35324;SDS011;35135;47.510;19.036;2022-11-15T08:24:17;14.50;;;8.48;;
35324;SDS011;35135;47.510;19.036;2022-11-15T08:26:43;10.68;;;8.70;;
35324;SDS011;35135;47.510;19.036;2022-11-15T08:29:09;9.63;;;7.82;;
35324;SDS011;35135;47.510;19.036;2022-11-15T08:31:35;9.35;;;8.40;;
35324;SDS011;35135;47.510;19.036;2022-11-15T08:34:01;11.25;;;8.40;;
35324;SDS011;35135;47.510;19.036;2022-11-15T08:36:31;9.13;;;8.15;;
35324;SDS011;35135;47.510;19.036;2022-11-15T08:38:57;10.82;;;9.23;;
35324;SDS011;35135;47.510;19.036;2022-11-15T08:41:33;10.32;;;8.30;;
35324;SDS011;35135;47.510;19.036;2022-11-15T08:44:01;10.05;;;8.38;;
35324;SDS011;35135;47.510;19.036;2022-11-15T08:46:27;10.75;;;8.45;;
35324;SDS011;35135;47.510;19.036;2022-11-15T08:48:52;10.70;;;8.77;;
35324;SDS011;35135;47.510;19.036;2022-11-15T08:51:18;10.88;;;8.15;;
35324;SDS011;35135;47.510;19.036;2022-11-15T08:53:43;8.57;;;7.68;;
35324;SDS011;35135;47.510;19.036;2022-11-15T08:56:10;8.98;;;8.05;;
35324;SDS011;35135;47.510;19.036;2022-11-15T08:58:37;9.57;;;8.55;;
35324;SDS011;35135;47.510;19.036;2022-11-15T09:01:03;8.43;;;7.63;;
35324;SDS011;35135;47.510;19.036;2022-11-15T09:03:30;9.48;;;8.43;;
35324;SDS011;35135;47.510;19.036;2022-11-15T09:05:59;9.52;;;8.63;;
35324;SDS011;35135;47.510;19.036;2022-11-15T09:08:28;9.05;;;8.15;;
35324;SDS011;35135;47.510;19.036;2022-11-15T09:10:55;10.18;;;8.45;;
35324;SDS011;35135;47.510;19.036;2022-11-15T09:13:21;10.52;;;7.57;;
35324;SDS011;35135;47.510;19.036;2022-11-15T09:15:47;9.57;;;8.63;;
35324;SDS011;35135;47.510;19.036;2022-11-15T09:18:12;9.85;;;8.93;;
35324;SDS011;35135;47.510;19.036;2022-11-15T09:20:38;9.55;;;8.40;;
35324;SDS011;35135;47.510;19.036;2022-11-15T09:23:04;10.95;;;8.82;;
35324;SDS011;35135;47.510;19.036;2022-11-15T09:25:30;11.55;;;9.68;;
35324;SDS011;35135;47.510;19.036;2022-11-15T09:27:57;11.30;;;9.82;;
35324;SDS011;35135;47.510;19.036;2022-11-15T09:30:23;11.48;;;9.88;;
35324;SDS011;35135;47.510;19.036;2022-11-15T09:32:49;11.80;;;10.40;;
35324;SDS011;35135;47.510;19.036;2022-11-15T09:35:15;14.15;;;11.30;;
35324;SDS011;35135;47.510;19.036;2022-11-15T09:37:41;13.30;;;11.27;;
35324;SDS011;35135;47.510;19.036;2022-11-15T09:40:11;15.85;;;11.60;;
35324;SDS011;35135;47.510;19.036;2022-11-15T09:49:17;13.38;;;12.05;;
35324;SDS011;35135;47.510;19.036;2022-11-15T09:51:44;16.17;;;12.52;;
35324;SDS011;35135;47.510;19.036;2022-11-15T09:54:34;14.02;;;11.88;;
35324;SDS011;35135;47.510;19.036;2022-11-15T09:57:04;16.55;;;14.85;;
35324;SDS011;35135;47.510;19.036;2022-11-15T10:02:23;22.52;;;20.23;;
35324;SDS011;35135;47.510;19.036;2022-11-15T10:04:49;29.30;;;26.30;;
35324;SDS011;35135;47.510;19.036;2022-11-15T10:07:18;33.88;;;30.40;;
35324;SDS011;35135;47.510;19.036;2022-11-15T10:09:49;40.38;;;36.55;;
35324;SDS011;35135;47.510;19.036;2022-11-15T10:12:16;42.28;;;37.95;;
35324;SDS011;35135;47.510;19.036;2022-11-15T10:14:42;48.40;;;43.70;;
35324;SDS011;35135;47.510;19.036;2022-11-15T10:17:27;55.58;;;50.15;;
35324;SDS011;35135;47.510;19.036;2022-11-15T10:22:44;69.07;;;61.97;;
35324;SDS011;35135;47.510;19.036;2022-11-15T10:25:17;87.00;;;78.15;;
35324;SDS011;35135;47.510;19.036;2022-11-15T10:27:47;89.35;;;80.22;;
35324;SDS011;35135;47.510;19.036;2022-11-15T10:30:18;95.43;;;85.57;;
35324;SDS011;35135;47.510;19.036;2022-11-15T10:32:45;86.78;;;78.10;;
35324;SDS011;35135;47.510;19.036;2022-11-15T10:37:45;110.22;;;99.03;;
35324;SDS011;35135;47.510;19.036;2022-11-15T10:40:23;117.25;;;105.28;;
35324;SDS011;35135;47.510;19.036;2022-11-15T10:45:34;144.88;;;126.70;;
35324;SDS011;35135;47.510;19.036;2022-11-15T10:48:33;144.88;;;128.57;;
35324;SDS011;35135;47.510;19.036;2022-11-15T10:50:52;151.00;;;129.37;;
35324;SDS011;35135;47.510;19.036;2022-11-15T10:56:05;147.55;;;129.18;;
35324;SDS011;35135;47.510;19.036;2022-11-15T11:03:35;124.22;;;110.53;;
35324;SDS011;35135;47.510;19.036;2022-11-15T11:06:06;116.78;;;104.10;;
35324;SDS011;35135;47.510;19.036;2022-11-15T11:08:37;116.35;;;103.85;;
35324;SDS011;35135;47.510;19.036;2022-11-15T11:11:03;112.03;;;99.82;;
35324;SDS011;35135;47.510;19.036;2022-11-15T11:13:31;109.43;;;97.85;;
35324;SDS011;35135;47.510;19.036;2022-11-15T11:22:05;94.93;;;84.78;;
35324;SDS011;35135;47.510;19.036;2022-11-15T11:24:23;87.50;;;78.10;;
35324;SDS011;35135;47.510;19.036;2022-11-15T11:37:46;75.53;;;67.68;;
35324;SDS011;35135;47.510;19.036;2022-11-15T11:40:24;70.18;;;62.55;;
35324;SDS011;35135;47.510;19.036;2022-11-15T11:51:24;59.75;;;53.53;;
35324;SDS011;35135;47.510;19.036;2022-11-15T11:56:55;54.63;;;48.95;;
35324;SDS011;35135;47.510;19.036;2022-11-15T11:59:37;53.95;;;48.33;;
35324;SDS011;35135;47.510;19.036;2022-11-15T12:02:41;51.95;;;46.60;;
35324;SDS011;35135;47.510;19.036;2022-11-15T12:05:20;50.67;;;45.45;;
35324;SDS011;35135;47.510;19.036;2022-11-15T12:07:54;50.30;;;45.13;;
35324;SDS011;35135;47.510;19.036;2022-11-15T12:10:36;46.78;;;42.08;;
35324;SDS011;35135;47.510;19.036;2022-11-15T12:13:11;48.03;;;43.13;;
35324;SDS011;35135;47.510;19.036;2022-11-15T12:18:17;44.70;;;40.00;;
35324;SDS011;35135;47.510;19.036;2022-11-15T12:20:54;42.20;;;38.10;;
35324;SDS011;35135;47.510;19.036;2022-11-15T12:23:24;41.30;;;37.20;;
35324;SDS011;35135;47.510;19.036;2022-11-15T12:31:10;38.85;;;35.05;;
35324;SDS011;35135;47.510;19.036;2022-11-15T12:36:29;36.90;;;33.05;;
35324;SDS011;35135;47.510;19.036;2022-11-15T12:39:04;36.35;;;32.75;;
35324;SDS011;35135;47.510;19.036;2022-11-15T12:43:58;35.70;;;32.10;;
35324;SDS011;35135;47.510;19.036;2022-11-15T12:48:54;34.60;;;30.92;;
35324;SDS011;35135;47.510;19.036;2022-11-15T13:17:53;29.13;;;26.33;;
35324;SDS011;35135;47.510;19.036;2022-11-15T13:28:01;29.83;;;26.83;;
35324;SDS011;35135;47.510;19.036;2022-11-15T13:30:39;28.23;;;25.42;;
35324;SDS011;35135;47.510;19.036;2022-11-15T13:33:20;26.20;;;23.60;;
35324;SDS011;35135;47.510;19.036;2022-11-15T13:36:18;25.90;;;23.38;;
35324;SDS011;35135;47.510;19.036;2022-11-15T13:38:53;26.02;;;23.50;;
35324;SDS011;35135;47.510;19.036;2022-11-15T13:41:31;25.85;;;23.27;;
35324;SDS011;35135;47.510;19.036;2022-11-15T13:43:59;25.13;;;22.85;;
35324;SDS011;35135;47.510;19.036;2022-11-15T13:46:27;25.42;;;22.95;;
35324;SDS011;35135;47.510;19.036;2022-11-15T13:54:03;23.42;;;21.23;;
35324;SDS011;35135;47.510;19.036;2022-11-15T13:56:44;25.02;;;22.60;;
35324;SDS011;35135;47.510;19.036;2022-11-15T13:59:33;23.10;;;20.90;;
35324;SDS011;35135;47.510;19.036;2022-11-15T14:02:02;22.63;;;20.42;;
35324;SDS011;35135;47.510;19.036;2022-11-15T14:04:48;22.90;;;20.70;;
35324;SDS011;35135;47.510;19.036;2022-11-15T14:07:35;24.70;;;22.23;;
35324;SDS011;35135;47.510;19.036;2022-11-15T14:10:16;23.00;;;20.65;;
35324;SDS011;35135;47.510;19.036;2022-11-15T14:12:56;21.73;;;19.63;;
35324;SDS011;35135;47.510;19.036;2022-11-15T14:15:27;23.27;;;20.98;;
35324;SDS011;35135;47.510;19.036;2022-11-15T14:17:53;21.42;;;19.30;;
35324;SDS011;35135;47.510;19.036;2022-11-15T14:20:24;22.60;;;20.17;;
35324;SDS011;35135;47.510;19.036;2022-11-15T14:22:56;21.42;;;19.25;;
35324;SDS011;35135;47.510;19.036;2022-11-15T14:25:26;21.50;;;19.23;;
35324;SDS011;35135;47.510;19.036;2022-11-15T14:30:40;21.00;;;18.90;;
35324;SDS011;35135;47.510;19.036;2022-11-15T14:35:53;20.80;;;18.80;;
35324;SDS011;35135;47.510;19.036;2022-11-15T14:38:21;21.52;;;19.33;;
35324;SDS011;35135;47.510;19.036;2022-11-15T14:40:46;21.13;;;19.02;;
35324;SDS011;35135;47.510;19.036;2022-11-15T14:43:13;20.33;;;18.17;;
35324;SDS011;35135;47.510;19.036;2022-11-15T14:45:39;19.40;;;17.30;;
35324;SDS011;35135;47.510;19.036;2022-11-15T14:48:05;20.00;;;18.10;;
35324;SDS011;35135;47.510;19.036;2022-11-15T14:50:31;19.80;;;17.80;;
35324;SDS011;35135;47.510;19.036;2022-11-15T14:52:58;20.55;;;18.33;;
35324;SDS011;35135;47.510;19.036;2022-11-15T14:55:25;21.40;;;19.17;;
35324;SDS011;35135;47.510;19.036;2022-11-15T14:57:53;19.58;;;17.67;;
35324;SDS011;35135;47.510;19.036;2022-11-15T15:00:19;19.33;;;17.40;;
35324;SDS011;35135;47.510;19.036;2022-11-15T15:02:46;19.30;;;17.40;;
35324;SDS011;35135;47.510;19.036;2022-11-15T15:07:42;20.08;;;18.08;;
35324;SDS011;35135;47.510;19.036;2022-11-15T15:10:09;20.23;;;18.23;;
35324;SDS011;35135;47.510;19.036;2022-11-15T15:12:34;20.00;;;18.13;;
35324;SDS011;35135;47.510;19.036;2022-11-15T15:15:00;19.05;;;17.02;;
35324;SDS011;35135;47.510;19.036;2022-11-15T15:17:26;18.98;;;17.08;;
35324;SDS011;35135;47.510;19.036;2022-11-15T15:19:51;18.45;;;16.67;;
35324;SDS011;35135;47.510;19.036;2022-11-15T15:22:18;17.65;;;15.95;;
35324;SDS011;35135;47.510;19.036;2022-11-15T15:24:46;18.10;;;16.17;;
35324;SDS011;35135;47.510;19.036;2022-11-15T15:27:12;17.40;;;15.70;;
35324;SDS011;35135;47.510;19.036;2022-11-15T15:29:38;19.58;;;16.15;;
35324;SDS011;35135;47.510;19.036;2022-11-15T15:32:04;17.67;;;16.05;;
35324;SDS011;35135;47.510;19.036;2022-11-15T15:34:30;18.58;;;16.63;;
35324;SDS011;35135;47.510;19.036;2022-11-15T15:39:51;18.05;;;16.38;;
35324;SDS011;35135;47.510;19.036;2022-11-15T15:42:18;17.52;;;15.85;;
35324;SDS011;35135;47.510;19.036;2022-11-15T15:44:45;17.00;;;15.40;;
35324;SDS011;35135;47.510;19.036;2022-11-15T15:47:15;16.95;;;15.25;;
35324;SDS011;35135;47.510;19.036;2022-11-15T15:49:44;17.25;;;15.60;;
35324;SDS011;35135;47.510;19.036;2022-11-15T15:52:09;18.48;;;16.58;;
35324;SDS011;35135;47.510;19.036;2022-11-15T15:54:36;19.13;;;16.65;;
35324;SDS011;35135;47.510;19.036;2022-11-15T15:57:02;19.00;;;16.85;;
35324;SDS011;35135;47.510;19.036;2022-11-15T15:59:28;19.08;;;16.65;;
35324;SDS011;35135;47.510;19.036;2022-11-15T16:01:53;18.88;;;17.08;;
35324;SDS011;35135;47.510;19.036;2022-11-15T16:04:19;20.27;;;17.50;;
35324;SDS011;35135;47.510;19.036;2022-11-15T16:06:45;19.42;;;17.27;;
35324;SDS011;35135;47.510;19.036;2022-11-15T16:09:14;21.38;;;18.50;;
35324;SDS011;35135;47.510;19.036;2022-11-15T16:11:41;20.67;;;18.45;;
35324;SDS011;35135;47.510;19.036;2022-11-15T16:14:07;24.90;;;19.85;;
35324;SDS011;35135;47.510;19.036;2022-11-15T16:16:33;20.73;;;18.27;;
35324;SDS011;35135;47.510;19.036;2022-11-15T16:19:00;22.77;;;19.10;;
35324;SDS011;35135;47.510;19.036;2022-11-15T16:21:29;24.02;;;19.33;;
35324;SDS011;35135;47.510;19.036;2022-11-15T16:23:55;24.05;;;19.30;;
35324;SDS011;35135;47.510;19.036;2022-11-15T16:26:21;24.60;;;18.80;;
35324;SDS011;35135;47.510;19.036;2022-11-15T16:28:50;21.13;;;18.88;;
35324;SDS011;35135;47.510;19.036;2022-11-15T16:31:17;21.50;;;19.20;;
35324;SDS011;35135;47.510;19.036;2022-11-15T16:33:45;23.73;;;18.83;;
35324;SDS011;35135;47.510;19.036;2022-11-15T16:38:47;21.60;;;17.73;;
35324;SDS011;35135;47.510;19.036;2022-11-15T16:41:13;25.40;;;17.95;;
35324;SDS011;35135;47.510;19.036;2022-11-15T16:43:41;20.58;;;17.13;;
35324;SDS011;35135;47.510;19.036;2022-11-15T16:46:41;20.13;;;17.13;;
35324;SDS011;35135;47.510;19.036;2022-11-15T16:48:59;22.60;;;16.87;;
35324;SDS011;35135;47.510;19.036;2022-11-15T16:51:25;20.77;;;17.52;;
35324;SDS011;35135;47.510;19.036;2022-11-15T16:53:51;21.00;;;17.38;;
35324;SDS011;35135;47.510;19.036;2022-11-15T16:56:24;19.98;;;16.70;;
35324;SDS011;35135;47.510;19.036;2022-11-15T16:58:51;19.40;;;16.73;;
35324;SDS011;35135;47.510;19.036;2022-11-15T17:01:26;19.25;;;15.85;;